Time;durP1;ratioP1;P1;durP2;ratioP2;P2;SDS_P1;SDS_P2;PMS_P1;PMS_P2;Temp;Humidity;BMP_temperature;BMP_pressure;BME280_temperature;BME280_humidity;BME280_pressure;Samples;Min_cycle;Max_cycle;Signal;HPM_P1;HPM_P2
2021/10/21 00:00:26;;;;;;;8.48;4.82;;;;;;;13.88;100.00;98914.09;5114400;28;20420;-36
2021/10/21 00:02:51;;;;;;;8.83;4.73;;;;;;;13.90;100.00;98899.09;5114399;28;20023;-36
2021/10/21 00:05:17;;;;;;;8.80;5.00;;;;;;;13.91;100.00;98880.91;5113898;28;20254;-36
2021/10/21 00:07:42;;;;;;;8.70;4.70;;;;;;;13.83;100.00;98887.00;5114429;28;20359;-36
2021/10/21 00:10:09;;;;;;;8.65;4.75;;;;;;;13.79;100.00;98829.75;5113403;28;20019;-36
2021/10/21 00:12:34;;;;;;;9.98;4.28;;;;;;;13.71;100.00;98818.78;5114010;28;20024;-36
2021/10/21 00:15:00;;;;;;;8.80;4.23;;;;;;;13.70;100.00;98817.16;5113346;28;20419;-36
2021/10/21 00:17:27;;;;;;;11.45;5.00;;;;;;;13.59;100.00;98800.28;5114290;28;20046;-36
2021/10/21 00:19:53;;;;;;;7.10;4.50;;;;;;;13.64;100.00;98803.69;5114634;28;20391;-36
2021/10/21 00:22:19;;;;;;;11.55;5.45;;;;;;;13.69;100.00;98802.78;5113707;28;20450;-36
2021/10/21 00:24:45;;;;;;;10.05;5.45;;;;;;;13.72;100.00;98804.91;5113652;28;20051;-36
2021/10/21 00:27:10;;;;;;;8.70;5.47;;;;;;;13.71;100.00;98795.13;5113672;28;20053;-36
2021/10/21 00:29:35;;;;;;;10.00;4.90;;;;;;;13.71;100.00;98791.63;5113923;28;20058;-36
2021/10/21 00:32:00;;;;;;;6.90;3.67;;;;;;;13.63;100.00;98779.56;5113302;28;20028;-36
2021/10/21 00:34:26;;;;;;;6.90;3.40;;;;;;;13.70;100.00;98777.22;5113991;28;20076;-36
2021/10/21 00:36:51;;;;;;;4.87;3.03;;;;;;;13.72;98.30;98771.53;5113232;28;20055;-36
2021/10/21 00:39:16;;;;;;;7.30;3.17;;;;;;;13.70;96.85;98777.22;5113497;28;20331;-36
2021/10/21 00:41:42;;;;;;;4.00;2.43;;;;;;;13.65;96.00;98772.69;5113912;28;20057;-36
2021/10/21 00:44:11;;;;;;;5.35;2.47;;;;;;;13.66;94.86;98765.34;5113331;28;20318;-36
2021/10/21 00:46:37;;;;;;;4.53;1.88;;;;;;;13.55;93.01;98740.31;5113384;28;20024;-36
2021/10/21 00:49:04;;;;;;;4.60;1.95;;;;;;;13.65;91.15;98775.41;5113553;28;20136;-36
2021/10/21 00:51:30;;;;;;;4.32;2.13;;;;;;;13.55;91.99;98780.25;5113329;28;20031;-36
2021/10/21 00:53:55;;;;;;;;;;;;;;;13.64;92.81;98784.69;5114287;28;20015;-36
2021/10/21 00:56:21;;;;;;;4.20;2.13;;;;;;;13.61;91.04;98787.97;5113510;28;20224;-36
2021/10/21 00:58:50;;;;;;;8.10;2.20;;;;;;;13.52;89.98;98768.09;5112970;28;20447;-36
2021/10/21 01:01:16;;;;;;;5.93;2.00;;;;;;;13.62;89.99;98780.66;5113287;28;20051;-36
2021/10/21 01:03:42;;;;;;;4.38;1.92;;;;;;;13.61;89.17;98782.56;5113234;28;20073;-36
2021/10/21 01:06:08;;;;;;;6.40;2.00;;;;;;;13.62;88.67;98795.06;5113505;28;20023;-36
2021/10/21 01:08:34;;;;;;;3.03;1.25;;;;;;;13.60;86.32;98805.38;5113352;28;20031;-36
2021/10/21 01:10:59;;;;;;;;;;;;;;;13.58;85.76;98791.31;5113797;28;20028;-36
2021/10/21 01:13:25;;;;;;;4.57;1.58;;;;;;;13.50;84.77;98797.44;5113844;28;19926;-36
2021/10/21 01:16:08;;;;;;;3.60;1.10;;;;;;;13.35;84.67;98778.72;5113126;28;20028;-36
2021/10/21 01:18:34;;;;;;;7.53;1.67;;;;;;;13.39;83.60;98796.03;5113640;28;20266;-36
2021/10/21 01:21:00;;;;;;;7.57;1.40;;;;;;;13.32;83.81;98801.03;5113335;28;20026;-36
2021/10/21 01:23:26;;;;;;;4.07;1.17;;;;;;;13.25;80.30;98806.03;5113098;28;20165;-36
2021/10/21 01:25:52;;;;;;;5.28;1.20;;;;;;;13.20;79.82;98803.38;5112701;28;20106;-36
2021/10/21 01:28:17;;;;;;;4.72;1.00;;;;;;;13.01;79.17;98785.25;5116657;28;20036;-36
2021/10/21 01:30:43;;;;;;;3.30;0.90;;;;;;;12.99;78.64;98776.59;5116968;28;20028;-36
2021/10/21 01:33:08;;;;;;;2.67;1.00;;;;;;;12.94;77.95;98798.38;5116833;28;20458;-36
2021/10/21 01:35:33;;;;;;;3.43;0.80;;;;;;;12.89;79.75;98793.03;5117044;28;20411;-36
2021/10/21 01:37:59;;;;;;;4.18;0.88;;;;;;;12.78;78.67;98791.56;5117413;28;20046;-36
2021/10/21 01:40:25;;;;;;;5.43;1.00;;;;;;;12.77;77.91;98782.63;5116920;28;20065;-36
2021/10/21 01:42:51;;;;;;;3.60;1.00;;;;;;;12.76;77.80;98778.31;5116793;28;20051;-36
2021/10/21 01:45:22;;;;;;;6.05;1.08;;;;;;;12.62;78.26;98767.41;5116818;28;20039;-36
2021/10/21 01:47:48;;;;;;;5.43;1.05;;;;;;;12.69;78.45;98786.03;5116527;28;20034;-36
2021/10/21 01:50:14;;;;;;;8.45;1.65;;;;;;;12.65;78.50;98787.72;5116089;28;20036;-36
2021/10/21 01:52:39;;;;;;;4.38;1.08;;;;;;;12.49;80.06;98756.50;5116935;28;20328;-36
2021/10/21 01:55:06;;;;;;;3.83;0.93;;;;;;;12.47;78.12;98753.28;5116296;28;20019;-36
2021/10/21 01:57:32;;;;;;;7.35;1.10;;;;;;;12.60;77.02;98771.53;5116249;28;20067;-36
2021/10/21 01:59:57;;;;;;;4.97;1.07;;;;;;;12.54;77.97;98767.25;5116396;28;20047;-36
2021/10/21 02:02:23;;;;;;;8.03;1.10;;;;;;;12.57;75.28;98748.50;5115959;28;20254;-36
2021/10/21 02:04:48;;;;;;;8.10;1.55;;;;;;;12.53;77.57;98760.25;5116169;28;20073;-36
2021/10/21 02:07:13;;;;;;;6.13;1.03;;;;;;;12.52;75.98;98745.06;5116253;28;20019;-36
2021/10/21 02:09:39;;;;;;;4.50;0.90;;;;;;;12.49;75.91;98738.34;5116103;28;20752;-36
2021/10/21 02:12:04;;;;;;;4.87;1.00;;;;;;;12.48;76.28;98739.44;5116746;28;20035;-36
2021/10/21 02:14:30;;;;;;;7.15;1.13;;;;;;;12.48;76.98;98747.56;5115777;28;20028;-36
2021/10/21 02:16:55;;;;;;;7.60;1.37;;;;;;;12.40;76.59;98729.28;5115706;28;20040;-36
2021/10/21 02:19:20;;;;;;;3.88;0.90;;;;;;;12.35;76.43;98707.66;5116307;28;20030;-36
2021/10/21 02:21:46;;;;;;;7.37;0.90;;;;;;;12.47;76.95;98731.59;5115560;28;20028;-36
2021/10/21 02:24:11;;;;;;;4.63;0.90;;;;;;;12.40;76.60;98704.88;5115617;28;20026;-36
2021/10/21 02:26:36;;;;;;;3.67;0.77;;;;;;;12.34;77.25;98706.03;5115644;28;20016;-36
2021/10/21 02:29:02;;;;;;;8.30;1.30;;;;;;;12.42;77.41;98712.72;5116116;28;20147;-36
2021/10/21 02:31:27;;;;;;;9.90;1.15;;;;;;;12.31;78.52;98701.22;5115415;28;20028;-36
2021/10/21 02:33:53;;;;;;;8.20;1.17;;;;;;;12.41;77.98;98730.88;5116055;28;20055;-36
2021/10/21 02:36:18;;;;;;;5.37;0.90;;;;;;;12.40;78.43;98718.44;5115720;28;20099;-36
2021/10/21 02:38:43;;;;;;;10.17;1.30;;;;;;;12.34;80.08;98706.84;5114544;28;20026;-36
2021/10/21 02:41:09;;;;;;;5.50;0.77;;;;;;;12.33;80.46;98721.50;5115019;28;20476;-36
2021/10/21 02:43:35;;;;;;;4.03;0.93;;;;;;;12.29;81.28;98722.38;5114947;28;20076;-36
2021/10/21 02:46:02;;;;;;;3.65;1.10;;;;;;;12.17;82.76;98722.03;5115302;28;20109;-36
2021/10/21 02:48:28;;;;;;;5.03;1.00;;;;;;;12.07;83.79;98714.84;5115180;28;20023;-36
2021/10/21 02:50:53;;;;;;;3.30;1.00;;;;;;;11.97;85.40;98702.25;5115282;28;20046;-36
2021/10/21 02:53:18;;;;;;;4.83;1.50;;;;;;;11.93;85.73;98716.66;5115796;28;20189;-36
2021/10/21 02:55:44;;;;;;;4.97;1.30;;;;;;;11.87;85.65;98707.81;5115164;28;20020;-36
2021/10/21 02:58:09;;;;;;;7.03;1.43;;;;;;;11.82;86.11;98697.84;5114867;28;20367;-36
2021/10/21 03:00:34;;;;;;;4.50;1.03;;;;;;;11.73;85.50;98679.81;5096701;28;20024;-36
2021/10/21 03:02:59;;;;;;;5.37;1.27;;;;;;;11.84;85.89;98698.34;5115251;28;20425;-36
2021/10/21 03:05:25;;;;;;;7.07;1.33;;;;;;;11.83;86.17;98699.44;5114872;28;20106;-36
2021/10/21 03:07:50;;;;;;;5.07;1.30;;;;;;;11.81;86.06;98708.94;5115455;28;20062;-36
2021/10/21 03:10:16;;;;;;;9.77;2.42;;;;;;;11.66;87.46;98690.97;5114490;28;20410;-36
2021/10/21 03:12:41;;;;;;;6.10;1.37;;;;;;;11.70;88.67;98702.84;5114783;28;20068;-36
2021/10/21 03:15:07;;;;;;;11.93;2.03;;;;;;;11.58;89.35;98695.13;5114741;28;20027;-36
2021/10/21 03:17:32;;;;;;;4.85;0.82;;;;;;;11.57;90.16;98688.13;5114931;28;20074;-36
2021/10/21 03:19:57;;;;;;;6.10;1.73;;;;;;;11.54;90.22;98688.69;5096501;28;20035;-36
2021/10/21 03:22:23;;;;;;;9.10;1.87;;;;;;;11.48;90.47;98675.53;5114302;28;20027;-36
2021/10/21 03:24:48;;;;;;;6.20;1.20;;;;;;;11.49;90.07;98687.94;5114245;28;20448;-36
2021/10/21 03:27:14;;;;;;;5.80;1.97;;;;;;;11.46;90.16;98681.19;5115028;28;20089;-36
2021/10/21 03:29:39;;;;;;;4.82;1.13;;;;;;;11.39;90.58;98669.13;5114584;28;20019;-36
2021/10/21 03:32:04;;;;;;;6.77;1.50;;;;;;;11.38;90.27;98646.69;5114518;28;20489;-36
2021/10/21 03:34:32;;;;;;;5.87;1.50;;;;;;;11.49;90.43;98677.13;5114694;28;20077;-36
2021/10/21 03:36:57;;;;;;;6.65;1.52;;;;;;;11.40;90.54;98665.31;5114746;28;20258;-36
2021/10/21 03:39:22;;;;;;;5.33;1.23;;;;;;;11.46;91.49;98674.97;5114074;28;20475;-36
2021/10/21 03:41:48;;;;;;;6.03;1.30;;;;;;;11.41;92.23;98659.63;5114425;28;20372;-36
2021/10/21 03:44:13;;;;;;;8.15;1.58;;;;;;;11.36;92.83;98654.25;5114174;28;20364;-36
2021/10/21 03:46:40;;;;;;;4.87;1.00;;;;;;;11.34;93.08;98661.88;5114328;28;20439;-36
2021/10/21 03:49:05;;;;;;;6.70;2.03;;;;;;;11.30;93.85;98668.97;5114011;28;20471;-36
2021/10/21 03:51:30;;;;;;;5.13;1.40;;;;;;;11.27;93.82;98653.28;5113775;28;20039;-36
2021/10/21 03:53:56;;;;;;;3.57;1.27;;;;;;;11.27;93.47;98664.94;5113793;28;20621;-36
2021/10/21 03:56:21;;;;;;;8.13;1.73;;;;;;;11.28;93.53;98663.03;5114401;28;20023;-36
2021/10/21 03:58:46;;;;;;;5.57;1.20;;;;;;;11.18;93.46;98650.44;5113891;28;20028;-36
2021/10/21 04:01:12;;;;;;;5.43;1.40;;;;;;;11.16;93.69;98639.09;5113859;28;20058;-36
2021/10/21 04:03:37;;;;;;;3.83;1.00;;;;;;;11.16;93.93;98643.69;5113902;28;20440;-36
2021/10/21 04:06:02;;;;;;;7.97;1.63;;;;;;;11.21;93.56;98643.63;5113675;28;20020;-36
2021/10/21 04:08:28;;;;;;;9.07;2.23;;;;;;;11.17;93.28;98627.16;5113809;28;20031;-36
2021/10/21 04:10:53;;;;;;;6.80;1.40;;;;;;;11.26;93.55;98648.97;5113806;28;20273;-36
2021/10/21 04:13:18;;;;;;;10.37;1.40;;;;;;;11.25;94.01;98647.38;5114487;28;20020;-36
2021/10/21 04:15:44;;;;;;;5.17;1.33;;;;;;;11.24;94.41;98651.97;5113379;28;20321;-36
2021/10/21 04:18:09;;;;;;;7.17;1.47;;;;;;;11.09;94.88;98631.31;5113634;28;20112;-36
2021/10/21 04:20:34;;;;;;;5.10;1.20;;;;;;;11.09;94.29;98625.13;5113556;28;20028;-36
2021/10/21 04:23:00;;;;;;;5.70;1.47;;;;;;;11.17;94.55;98637.19;5113868;28;20055;-36
2021/10/21 04:25:25;;;;;;;8.00;1.13;;;;;;;11.19;94.40;98627.69;5113574;28;20024;-36
2021/10/21 04:27:51;;;;;;;7.37;1.40;;;;;;;11.07;94.74;98602.94;5113293;28;20016;-36
2021/10/21 04:30:16;;;;;;;5.25;1.15;;;;;;;11.16;94.35;98622.03;5113706;28;20026;-36
2021/10/21 04:32:42;;;;;;;4.80;1.00;;;;;;;10.98;93.79;98583.84;5113445;28;20020;-36
2021/10/21 04:35:08;;;;;;;4.70;0.90;;;;;;;11.22;93.21;98610.88;5113443;28;20047;-36
2021/10/21 04:37:33;;;;;;;;;;;;;;;11.25;93.45;98606.78;5114440;28;20081;-36
2021/10/21 04:39:59;;;;;;;4.00;0.80;;;;;;;11.20;93.80;98604.16;5113430;28;19904;-36
2021/10/21 04:42:24;;;;;;;5.07;0.80;;;;;;;11.22;93.60;98615.47;5114127;28;20281;-36
2021/10/21 04:44:49;;;;;;;4.67;0.97;;;;;;;11.22;93.62;98615.47;5113309;28;20024;-36
2021/10/21 04:47:15;;;;;;;6.13;1.53;;;;;;;11.20;93.43;98629.31;5113661;28;20035;-36
2021/10/21 04:49:40;;;;;;;3.67;0.90;;;;;;;11.21;93.57;98630.91;5113020;28;20047;-36
2021/10/21 04:52:05;;;;;;;2.83;0.80;;;;;;;11.19;93.54;98627.69;5113017;28;20073;-36
2021/10/21 04:54:31;;;;;;;4.43;0.97;;;;;;;11.19;93.85;98637.72;5113800;28;20072;-36
2021/10/21 04:56:56;;;;;;;3.03;1.07;;;;;;;11.21;94.35;98647.13;5113496;28;20024;-36
2021/10/21 04:59:21;;;;;;;2.17;0.70;;;;;;;11.22;94.62;98666.88;5113258;28;20024;-35
2021/10/21 05:01:47;;;;;;;3.37;1.10;;;;;;;11.16;95.57;98684.25;5115478;28;20184;-36
2021/10/21 05:04:12;;;;;;;4.83;1.13;;;;;;;11.15;96.03;98683.47;5117423;28;20475;-36
2021/10/21 05:06:37;;;;;;;6.40;1.67;;;;;;;11.03;95.33;98697.38;5117644;28;20027;-36
2021/10/21 05:09:03;;;;;;;4.37;1.80;;;;;;;11.10;95.54;98721.38;5117021;28;20023;-36
2021/10/21 05:11:28;;;;;;;3.92;1.27;;;;;;;11.11;95.84;98738.41;5117305;28;20029;-36
2021/10/21 05:13:54;;;;;;;5.30;1.67;;;;;;;11.13;96.04;98774.91;5117910;28;20292;-36
2021/10/21 05:16:19;;;;;;;5.70;1.40;;;;;;;11.11;96.21;98822.28;5117743;28;20281;-35
2021/10/21 05:18:45;;;;;;;3.23;0.90;;;;;;;11.06;94.35;98796.06;5117241;28;20093;-36
2021/10/21 05:21:10;;;;;;;3.28;1.20;;;;;;;10.95;95.37;98843.22;5116932;28;20024;-36
2021/10/21 05:23:36;;;;;;;5.13;0.90;;;;;;;10.97;91.95;98874.28;5116439;28;20028;-36
2021/10/21 05:26:01;;;;;;;2.88;0.80;;;;;;;10.91;92.08;98913.28;5117531;28;20269;-36
2021/10/21 05:28:27;;;;;;;3.83;0.77;;;;;;;10.82;91.07;98936.59;5117370;28;20099;-36
2021/10/21 05:30:53;;;;;;;;;;;;;;;10.87;90.40;98960.09;5116928;28;20114;-35
2021/10/21 05:33:18;;;;;;;6.25;0.70;;;;;;;10.71;90.02;99000.72;5116724;28;20355;-35
2021/10/21 05:35:43;;;;;;;4.00;0.83;;;;;;;10.69;90.92;99021.00;5117053;28;20020;-35
2021/10/21 05:38:09;;;;;;;6.60;0.80;;;;;;;10.53;90.65;99058.88;5116700;28;20020;-35
2021/10/21 05:40:34;;;;;;;7.17;1.00;;;;;;;10.55;91.02;99091.06;5116720;28;20019;-36
2021/10/21 05:42:59;;;;;;;6.50;1.17;;;;;;;10.54;91.09;99114.56;5116732;28;20444;-35
2021/10/21 05:45:25;;;;;;;6.33;1.00;;;;;;;10.54;92.40;99179.44;5116243;28;20020;-35
2021/10/21 05:47:50;;;;;;;7.40;0.90;;;;;;;10.54;90.33;99189.41;5116999;28;20096;-36
2021/10/21 05:50:15;;;;;;;6.27;1.87;;;;;;;10.44;90.86;99202.94;5116096;28;20490;-35
2021/10/21 05:52:40;;;;;;;4.93;0.97;;;;;;;10.39;91.49;99222.66;5116239;28;20020;-35
2021/10/21 05:55:06;;;;;;;9.27;1.23;;;;;;;10.46;91.54;99268.34;5116459;28;20024;-35
2021/10/21 05:57:32;;;;;;;4.28;1.30;;;;;;;10.45;92.24;99294.56;5116488;28;20024;-35
2021/10/21 05:59:58;;;;;;;8.35;1.73;;;;;;;10.42;91.43;99316.69;5116455;28;20031;-36
2021/10/21 06:02:23;;;;;;;8.85;1.52;;;;;;;10.41;92.58;99357.50;5116324;28;20023;-35
2021/10/21 06:04:49;;;;;;;5.30;1.25;;;;;;;10.37;93.47;99376.13;5115872;28;20038;-35
2021/10/21 06:07:14;;;;;;;7.47;1.23;;;;;;;10.31;93.52;99396.94;5116059;28;20031;-35
2021/10/21 06:09:41;;;;;;;12.25;2.42;;;;;;;10.27;93.79;99416.63;5115675;28;20363;-36
2021/10/21 06:12:07;;;;;;;11.00;1.95;;;;;;;10.25;94.71;99424.19;5116403;28;20061;-35
2021/10/21 06:14:33;;;;;;;16.08;1.90;;;;;;;10.22;93.91;99440.88;5115152;28;20059;-35
2021/10/21 06:16:58;;;;;;;9.73;1.73;;;;;;;10.22;94.32;99462.50;5115971;28;20456;-36
2021/10/21 06:19:24;;;;;;;17.63;2.22;;;;;;;10.21;95.30;99485.19;5115870;28;20024;-36
2021/10/21 06:21:57;;;;;;;13.60;2.45;;;;;;;10.24;95.96;99503.59;5116062;28;20451;-35
2021/10/21 06:24:26;;;;;;;14.38;2.80;;;;;;;10.24;95.98;99504.41;5116185;28;20027;-36
2021/10/21 06:26:51;;;;;;;14.82;2.35;;;;;;;10.20;95.96;99505.16;5116124;28;20054;-35
2021/10/21 06:29:17;;;;;;;14.17;2.63;;;;;;;10.11;95.84;99512.97;5115732;28;20435;-35
2021/10/21 06:31:42;;;;;;;8.65;2.20;;;;;;;10.17;95.47;99535.41;5115738;28;20473;-35
2021/10/21 06:34:12;;;;;;;11.80;2.07;;;;;;;10.14;95.79;99536.72;5115699;28;20059;-36
2021/10/21 06:36:37;;;;;;;13.45;2.53;;;;;;;10.16;95.60;99550.81;5115863;28;20027;-36
2021/10/21 06:39:03;;;;;;;15.40;2.30;;;;;;;10.20;95.49;99572.69;5115568;28;20396;-36
2021/10/21 06:41:29;;;;;;;9.75;1.75;;;;;;;10.19;95.64;99576.47;5115753;28;20016;-36
2021/10/21 06:43:54;;;;;;;11.02;2.03;;;;;;;10.22;95.27;99593.00;5115663;28;20027;-36
2021/10/21 06:46:19;;;;;;;11.50;2.20;;;;;;;10.05;94.64;99574.25;5115936;28;20016;-36
2021/10/21 06:48:47;;;;;;;8.57;1.90;;;;;;;10.16;93.79;99604.03;5115277;28;20028;-35
2021/10/21 06:51:13;;;;;;;15.38;2.92;;;;;;;10.18;93.29;99626.19;5115728;28;20031;-35
2021/10/21 06:53:38;;;;;;;10.82;2.97;;;;;;;10.28;91.56;99656.00;5115165;28;20034;-35
2021/10/21 06:56:04;;;;;;;14.03;2.37;;;;;;;10.33;89.86;99669.56;5115719;28;20066;-36
2021/10/21 06:58:30;;;;;;;12.57;2.05;;;;;;;10.35;89.36;99667.44;5115795;28;20027;-36
2021/10/21 07:00:55;;;;;;;11.60;2.40;;;;;;;10.35;89.07;99705.25;5115200;28;20462;-36
2021/10/21 07:03:21;;;;;;;13.80;2.10;;;;;;;10.30;89.00;99707.94;5114688;28;20475;-35
2021/10/21 07:05:48;;;;;;;13.32;2.65;;;;;;;10.19;90.15;99711.56;5114933;28;20067;-36
2021/10/21 07:08:13;;;;;;;11.15;2.55;;;;;;;10.28;89.45;99742.47;5115164;28;20034;-35
2021/10/21 07:10:40;;;;;;;12.25;2.10;;;;;;;10.31;89.58;99755.47;5114594;28;20023;-36
2021/10/21 07:13:05;;;;;;;;;;;;;;;10.35;89.76;99772.00;5115847;28;20026;-35
2021/10/21 07:15:32;;;;;;;9.25;2.13;;;;;;;10.32;89.01;99773.31;5115003;28;20247;-36
2021/10/21 07:17:57;;;;;;;10.73;2.60;;;;;;;10.33;88.70;99785.75;5114494;28;20368;-35
2021/10/21 07:20:22;;;;;;;8.70;2.47;;;;;;;10.30;87.78;99800.59;5114823;28;20043;-35
2021/10/21 07:22:48;;;;;;;15.10;2.20;;;;;;;10.24;87.83;99789.97;5114956;28;20025;-36
2021/10/21 07:25:13;;;;;;;12.90;2.50;;;;;;;10.31;87.98;99826.56;5114704;28;20024;-35
2021/10/21 07:27:40;;;;;;;20.30;3.17;;;;;;;10.33;86.82;99831.69;5114559;28;20016;-35
2021/10/21 07:30:05;;;;;;;11.55;2.22;;;;;;;10.31;86.91;99844.66;5114507;28;20027;-35
2021/10/21 07:32:31;;;;;;;15.27;2.70;;;;;;;10.32;84.51;99857.91;5114695;28;20088;-36
2021/10/21 07:34:56;;;;;;;15.40;3.07;;;;;;;10.34;83.09;99860.34;5114491;28;20027;-36
2021/10/21 07:37:21;;;;;;;15.23;3.00;;;;;;;10.27;82.46;99848.94;5114401;28;20023;-36
2021/10/21 07:39:48;;;;;;;16.37;2.80;;;;;;;10.38;82.02;99875.00;5096296;28;20110;-36
2021/10/21 07:42:14;;;;;;;12.35;2.13;;;;;;;10.38;81.55;99891.19;5113815;28;20019;-35
2021/10/21 07:44:44;;;;;;;10.98;2.35;;;;;;;10.39;81.18;99903.63;5113973;28;20031;-36
2021/10/21 07:47:10;;;;;;;14.73;2.78;;;;;;;10.37;81.48;99908.50;5114393;28;20028;-36
2021/10/21 07:49:35;;;;;;;16.00;2.80;;;;;;;10.50;80.40;99918.94;5114056;28;20126;-35
2021/10/21 07:52:04;;;;;;;9.97;2.50;;;;;;;10.51;79.32;99917.84;5114317;28;20065;-36
2021/10/21 07:54:30;;;;;;;12.60;2.60;;;;;;;10.56;79.95;99928.72;5113659;28;20031;-36
2021/10/21 07:56:57;;;;;;;;;;;;;;;10.65;79.53;99945.31;5114025;28;20027;-36
2021/10/21 07:59:24;;;;;;;14.68;2.00;;;;;;;10.68;78.22;99941.28;5113912;28;19903;-37
2021/10/21 08:01:49;;;;;;;12.43;2.30;;;;;;;10.75;78.20;99955.44;5113542;28;20027;-36
2021/10/21 08:04:15;;;;;;;10.23;2.43;;;;;;;10.72;78.60;99955.94;5113463;28;20548;-36
2021/10/21 08:06:42;;;;;;;10.88;2.42;;;;;;;10.65;78.10;99948.03;5113789;28;20080;-36
2021/10/21 08:09:07;;;;;;;12.43;2.00;;;;;;;10.80;77.70;99977.94;5113458;28;20053;-36
2021/10/21 08:11:33;;;;;;;11.67;2.73;;;;;;;10.69;77.83;99968.09;5113867;28;20024;-36
2021/10/21 08:13:58;;;;;;;16.50;2.23;;;;;;;10.76;78.93;99987.63;5113300;28;20436;-36
2021/10/21 08:16:23;;;;;;;11.10;2.90;;;;;;;10.66;78.96;99967.75;5113396;28;20047;-35
2021/10/21 08:18:49;;;;;;;17.77;2.53;;;;;;;10.78;79.02;99965.72;5114048;28;20570;-36
2021/10/21 08:21:14;;;;;;;17.20;2.60;;;;;;;10.84;78.99;99978.25;5114097;28;20038;-35
2021/10/21 08:23:40;;;;;;;14.43;2.75;;;;;;;10.80;78.16;99982.53;5113464;28;20020;-36
2021/10/21 08:26:06;;;;;;;7.73;2.03;;;;;;;10.82;77.92;99974.97;5114271;28;20034;-36
2021/10/21 08:28:32;;;;;;;16.70;2.90;;;;;;;10.87;78.23;99985.84;5113524;28;20246;-36
2021/10/21 08:30:57;;;;;;;17.83;2.55;;;;;;;11.05;78.55;100003.63;5113689;28;20128;-36
2021/10/21 08:33:22;;;;;;;12.27;2.17;;;;;;;11.10;76.93;100017.22;5113964;28;20102;-36
2021/10/21 08:35:48;;;;;;;9.00;2.50;;;;;;;11.25;77.55;100030.06;5112914;28;20023;-36
2021/10/21 08:38:13;;;;;;;8.33;2.10;;;;;;;11.26;78.55;100007.34;5113735;28;20047;-36
2021/10/21 08:40:39;;;;;;;11.23;2.13;;;;;;;11.36;75.81;100034.50;5112706;28;20036;-36
2021/10/21 08:43:06;;;;;;;8.07;2.00;;;;;;;11.34;75.04;100036.66;5113487;28;20030;-36
2021/10/21 08:45:32;;;;;;;8.65;2.25;;;;;;;11.42;74.54;100044.34;5112947;28;20055;-36
2021/10/21 08:48:04;;;;;;;10.40;2.05;;;;;;;11.51;75.01;100058.22;5113122;28;20047;-36
2021/10/21 08:50:33;;;;;;;10.88;2.10;;;;;;;11.56;74.11;100050.94;5113493;28;20104;-36
2021/10/21 08:52:58;;;;;;;8.45;1.92;;;;;;;11.65;73.22;100053.19;5113651;28;20352;-36
2021/10/21 08:55:24;;;;;;;12.00;2.38;;;;;;;11.77;73.19;100059.28;5112889;28;20023;-36
2021/10/21 08:57:49;;;;;;;11.70;2.43;;;;;;;11.81;74.01;100063.94;5112928;28;20034;-36
2021/10/21 09:00:15;;;;;;;12.37;2.47;;;;;;;11.85;73.70;100070.47;5113166;28;20129;-36
2021/10/21 09:02:51;;;;;;;12.27;2.42;;;;;;;11.82;72.30;100083.72;5113641;28;20020;-36
2021/10/21 09:05:40;;;;;;;13.88;3.15;;;;;;;11.73;72.33;100091.47;5113405;28;20027;-36
2021/10/21 09:08:15;;;;;;;10.43;2.10;;;;;;;11.53;75.57;100115.66;5113107;28;20077;-36
2021/10/21 09:10:54;;;;;;;10.18;2.90;;;;;;;11.26;79.60;100134.56;5113523;28;20030;-35
2021/10/21 09:13:34;;;;;;;10.75;2.03;;;;;;;10.93;82.03;100136.34;5113175;28;20080;-36
2021/10/21 09:16:02;;;;;;;5.80;1.63;;;;;;;10.72;82.74;100159.53;5113612;28;20019;-36
2021/10/21 09:18:42;;;;;;;7.78;1.80;;;;;;;10.56;84.52;100169.31;5113670;28;20068;-35
2021/10/21 09:21:07;;;;;;;5.82;1.17;;;;;;;10.24;86.75;100135.84;5112751;28;20107;-35
2021/10/21 09:23:32;;;;;;;6.80;1.40;;;;;;;10.21;85.91;100163.34;5112998;28;20043;-35
2021/10/21 09:26:18;;;;;;;6.30;1.57;;;;;;;10.20;86.87;100176.03;5112801;28;20252;-35
2021/10/21 09:28:43;;;;;;;7.93;1.75;;;;;;;10.09;88.49;100176.91;5112336;28;20051;-35
2021/10/21 09:31:11;;;;;;;4.07;1.33;;;;;;;9.96;88.68;100169.94;5112455;28;20031;-35
2021/10/21 09:33:56;;;;;;;7.78;1.73;;;;;;;9.93;88.93;100172.28;5112900;28;20076;-35
2021/10/21 09:36:26;;;;;;;7.88;1.77;;;;;;;9.98;89.61;100192.09;5112424;28;20027;-35
2021/10/21 09:38:54;;;;;;;7.43;1.70;;;;;;;9.86;90.05;100185.97;5113435;28;20409;-35
2021/10/21 09:41:22;;;;;;;9.18;2.30;;;;;;;9.94;90.75;100190.94;5112522;28;20027;-35
2021/10/21 09:43:50;;;;;;;9.18;1.80;;;;;;;9.83;91.04;100191.03;5112478;28;20587;-36
2021/10/21 09:46:48;;;;;;;9.20;2.78;;;;;;;9.92;90.86;100220.09;5113041;28;20031;-35
2021/10/21 09:49:32;;;;;;;8.25;1.92;;;;;;;9.79;92.51;100220.38;5012170;28;20041;-35
2021/10/21 09:51:58;;;;;;;6.65;2.20;;;;;;;9.79;92.72;100229.28;5013884;28;20046;-35
2021/10/21 09:54:23;;;;;;;9.23;2.17;;;;;;;9.85;93.62;100227.50;5013627;28;20361;-35
2021/10/21 09:57:04;;;;;;;10.60;2.83;;;;;;;9.86;93.38;100231.03;5014203;28;20087;-35
2021/10/21 09:59:31;;;;;;;9.27;2.85;;;;;;;9.83;94.32;100232.34;5013467;28;20117;-36
2021/10/21 10:02:05;;;;;;;8.77;2.40;;;;;;;9.80;95.11;100228.22;5013754;28;20037;-36
2021/10/21 10:04:31;;;;;;;12.25;3.45;;;;;;;9.83;95.07;100234.22;5013337;28;20026;-35
2021/10/21 10:06:59;;;;;;;;;;;;;;;9.92;93.71;100240.88;5013852;28;20528;-35
2021/10/21 10:09:34;;;;;;;12.48;3.25;;;;;;;9.94;96.61;100244.97;5013545;28;20004;-35
2021/10/21 10:12:05;;;;;;;8.20;2.58;;;;;;;9.96;95.08;100253.66;5013738;28;20037;-36
2021/10/21 10:14:30;;;;;;;15.63;3.08;;;;;;;9.94;95.26;100244.97;5013144;28;20413;-36
2021/10/21 10:17:00;;;;;;;7.93;2.80;;;;;;;9.89;95.50;100230.56;5013500;28;20073;-35
2021/10/21 10:19:28;;;;;;;9.55;3.05;;;;;;;9.94;95.07;100249.56;5013404;28;20117;-36
2021/10/21 10:21:56;;;;;;;10.80;3.50;;;;;;;9.93;95.49;100270.34;5013277;28;20030;-35
2021/10/21 10:24:32;;;;;;;8.23;2.00;;;;;;;9.89;95.91;100269.19;5046180;28;20035;-35
2021/10/21 10:26:59;;;;;;;7.32;2.40;;;;;;;9.88;95.17;100262.16;5115423;28;20452;-36
2021/10/21 10:29:30;;;;;;;4.88;1.92;;;;;;;9.89;95.61;100284.56;5115660;28;20052;-35
2021/10/21 10:31:58;;;;;;;7.85;2.35;;;;;;;9.79;95.29;100264.41;5115589;28;20452;-36
2021/10/21 10:34:36;;;;;;;7.60;2.85;;;;;;;9.83;96.17;100283.66;5115475;28;20060;-35
2021/10/21 10:37:27;;;;;;;7.97;2.40;;;;;;;9.82;96.49;100284.72;5116065;28;20360;-35
2021/10/21 10:39:56;;;;;;;7.35;3.20;;;;;;;9.77;96.67;100285.44;5115223;28;20471;-36
2021/10/21 10:42:31;;;;;;;8.90;2.72;;;;;;;9.84;96.84;100298.78;5115697;28;20511;-36
2021/10/21 10:45:04;;;;;;;12.20;2.92;;;;;;;9.83;97.19;100294.44;5115908;28;20031;-35
2021/10/21 10:47:49;;;;;;;8.30;2.65;;;;;;;9.84;95.86;100296.09;5115159;28;20019;-35
2021/10/21 10:50:17;;;;;;;6.93;2.03;;;;;;;9.89;96.14;100308.88;5115178;28;20066;-36
2021/10/21 10:52:49;;;;;;;10.02;1.90;;;;;;;9.89;95.62;100289.97;5115134;28;20026;-36
2021/10/21 10:55:25;;;;;;;5.70;1.58;;;;;;;9.91;94.82;100287.88;5115052;28;20102;-35
2021/10/21 10:57:53;;;;;;;4.97;1.63;;;;;;;10.11;96.62;100300.94;5115286;28;20023;-35
2021/10/21 11:00:54;;;;;;;6.82;1.40;;;;;;;10.28;94.29;100310.75;5114307;28;20020;-36
2021/10/21 11:03:35;;;;;;;6.25;1.60;;;;;;;10.26;93.01;100320.19;5114562;28;20069;-36
2021/10/21 11:06:11;;;;;;;6.55;1.92;;;;;;;10.15;93.18;100321.84;5115492;28;20020;-36
2021/10/21 11:08:59;;;;;;;2.95;1.35;;;;;;;10.13;94.14;100325.81;5114520;28;20357;-35
2021/10/21 11:11:49;;;;;;;5.20;1.40;;;;;;;10.07;93.80;100331.13;5114874;28;20050;-35
2021/10/21 11:14:15;;;;;;;5.22;1.25;;;;;;;10.05;93.72;100332.41;5114398;28;20023;-35
2021/10/21 11:16:53;;;;;;;5.20;1.17;;;;;;;9.94;93.83;100331.41;5114346;28;20019;-35
2021/10/21 11:19:36;;;;;;;5.63;1.23;;;;;;;10.05;94.57;100345.91;5115329;28;20071;-35
2021/10/21 11:22:03;;;;;;;4.85;1.40;;;;;;;10.05;94.72;100337.81;5114762;28;20019;-35
2021/10/21 11:24:43;;;;;;;5.40;1.30;;;;;;;10.12;94.12;100326.91;5114255;28;20019;-35
2021/10/21 11:27:09;;;;;;;4.82;1.92;;;;;;;10.25;93.89;100329.34;5114912;28;20106;-36
2021/10/21 11:29:34;;;;;;;5.15;1.63;;;;;;;10.42;93.60;100319.38;5114347;28;20420;-35
2021/10/21 11:32:04;;;;;;;6.60;1.93;;;;;;;10.59;93.15;100335.66;5114671;28;20023;-42